Time;durP1;ratioP1;P1;durP2;ratioP2;P2;SDS_P1;SDS_P2;PMS_P1;PMS_P2;Temp;Humidity;BMP_temperature;BMP_pressure;BME280_temperature;BME280_humidity;BME280_pressure;Samples;Min_cycle;Max_cycle;Signal;HPM_P1;HPM_P2
2022/11/20 07:12:00;;;;;;;;;;;;;;;18.96;59.46;98378.34;4988044;28;19968;-68
2022/11/20 07:14:25;;;;;;;;;;;;;;;18.97;59.44;98380.81;4993483;28;19922;-71
2022/11/20 07:16:51;;;;;;;;;;;;;;;18.98;59.54;98377.16;4992227;28;19918;-71
2022/11/20 07:19:16;;;;;;;;;;;;;;;19.13;58.95;98385.13;4991978;28;19918;-68
2022/11/20 07:21:41;;;;;;;;;;;;;;;19.22;59.19;98383.22;4992834;28;19922;-73
2022/11/20 07:24:07;;;;;;;;;;;;;;;19.28;58.98;98376.38;4991099;28;19929;-73
2022/11/20 07:26:32;;;;;;;;;;;;;;;19.32;59.61;98373.19;4990490;28;19925;-74
2022/11/20 07:28:58;;;;;;;;;;;;;;;19.43;60.90;98363.16;4977345;28;19992;-75
2022/11/20 07:31:23;;;;;;;;;;;;;;;19.54;60.34;98357.38;4973111;28;20388;-73
2022/11/20 07:33:49;;;;;;;;;;;;;;;19.66;60.07;98363.06;4990133;28;19918;-73
2022/11/20 07:36:14;;;;;;;;;;;;;;;19.80;58.74;98356.13;4973881;28;19922;-74
2022/11/20 07:38:40;;;;;;;;;;;;;;;19.92;58.42;98369.69;4963977;28;19981;-77
2022/11/20 07:41:05;;;;;;;;;;;;;;;19.99;58.26;98368.78;4952167;28;19972;-76
2022/11/20 07:43:30;;;;;;;;;;;;;;;20.08;57.99;98366.00;4986700;28;19965;-77
2022/11/20 07:45:56;;;;;;;;;;;;;;;20.12;57.96;98362.78;4989025;28;19980;-77
2022/11/20 07:48:21;;;;;;;;;;;;;;;20.15;57.35;98359.78;4968425;28;19929;-77
2022/11/20 07:50:47;;;;;;;;;;;;;;;20.21;57.47;98364.31;4967731;28;21005;-78
2022/11/20 07:53:13;;;;;;;;;;;;;;;20.27;57.32;98362.72;4987023;28;19995;-82
2022/11/20 07:55:39;;;;;;;;;;;;;;;20.31;57.22;98368.50;4985097;28;20000;-81
2022/11/20 07:58:04;;;;;;;;;;;;;;;20.35;56.99;98365.28;4986077;28;20461;-80
2022/11/20 08:00:29;;;;;;;;;;;;;;;20.39;56.83;98363.06;4968236;28;19925;-83
2022/11/20 08:02:54;;;;;;;;;;;;;;;20.42;56.80;98371.44;4968142;28;19922;-80
2022/11/20 08:05:20;;;;;;;;;;;;;;;20.42;56.67;98370.63;4971190;28;19926;-81
2022/11/20 08:07:45;;;;;;;;;;;;;;;20.40;56.76;98367.38;4973520;28;19980;-81
2022/11/20 08:10:12;;;;;;;;;;;;;;;20.39;56.93;98373.66;4987035;28;20030;-83
2022/11/20 08:15:27;;;;;;;;;;;;;;;20.42;56.82;98379.41;4988290;28;20098;-83
2022/11/20 08:17:58;;;;;;;;;;;;;;;20.44;56.66;98371.25;5001980;28;19993;-81
2022/11/20 08:20:23;;;;;;;;;;;;;;;20.46;56.48;98363.13;4968179;28;19921;-82
2022/11/20 08:22:49;;;;;;;;;;;;;;;20.50;56.80;98370.50;4982609;28;20360;-81
2022/11/20 08:25:14;;;;;;;;;;;;;;;20.50;56.42;98367.84;4997407;28;19952;-83
2022/11/20 08:27:39;;;;;;;;;;;;;;;20.53;56.78;98364.81;4982704;28;20750;-81
2022/11/20 08:30:05;;;;;;;;;;;;;;;20.53;56.46;98367.47;4973975;28;19921;-84
2022/11/20 08:32:30;;;;;;;;;;;;;;;20.53;56.63;98379.91;4982230;28;20422;-82
2022/11/20 08:34:56;;;;;;;;;;;;;;;20.56;56.42;98371.59;4964699;28;19925;-81
2022/11/20 08:37:21;;;;;;;;;;;;;;;20.57;56.38;98362.59;4984166;28;19971;-82
2022/11/20 08:39:46;;;;;;;;;;;;;;;20.55;56.21;98356.69;4983703;28;20008;-81
2022/11/20 08:42:12;;;;;;;;;;;;;;;20.57;56.25;98360.78;4964383;28;19928;-80
2022/11/20 08:44:37;;;;;;;;;;;;;;;20.57;56.31;98370.56;4984665;28;19999;-80
2022/11/20 08:47:02;;;;;;;;;;;;;;;20.55;56.42;98367.28;4984057;28;19948;-81
2022/11/20 08:49:28;;;;;;;;;;;;;;;20.61;56.20;98359.38;4999468;28;20001;-78
2022/11/20 08:51:54;;;;;;;;;;;;;;;20.64;56.02;98355.56;4987776;28;20307;-79
2022/11/20 08:54:22;;;;;;;;;;;;;;;20.67;55.45;98355.19;5001973;28;20384;-79
2022/11/20 08:56:48;;;;;;;;;;;;;;;20.69;55.29;98352.34;4966849;28;20419;-76
2022/11/20 08:59:13;;;;;;;;;;;;;;;20.70;54.89;98338.06;4985459;28;19918;-78
2022/11/20 09:01:39;;;;;;;;;;;;;;;20.66;54.87;98332.31;4967888;28;19918;-77
2022/11/20 09:04:04;;;;;;;;;;;;;;;20.65;54.38;98322.72;4988052;28;19923;-79
2022/11/20 09:06:29;;;;;;;;;;;;;;;20.64;54.75;98310.50;4970127;28;19988;-79
2022/11/20 09:08:55;;;;;;;;;;;;;;;20.63;54.53;98314.13;4985695;28;20016;-78
2022/11/20 09:11:20;;;;;;;;;;;;;;;20.58;54.86;98319.19;4985584;28;19957;-79
2022/11/20 09:13:46;;;;;;;;;;;;;;;20.55;54.94;98315.06;4989180;28;19922;-79
2022/11/20 09:16:11;;;;;;;;;;;;;;;20.50;54.99;98325.44;5001398;28;20436;-80
2022/11/20 09:18:37;;;;;;;;;;;;;;;20.44;55.08;98323.53;4985069;28;19921;-77
2022/11/20 09:21:03;;;;;;;;;;;;;;;20.40;55.28;98304.56;5000944;28;19937;-80
2022/11/20 09:23:30;;;;;;;;;;;;;;;20.35;55.32;98319.38;4971604;28;19926;-78
2022/11/20 09:25:59;;;;;;;;;;;;;;;20.32;55.51;98317.09;5003340;28;19981;-79
2022/11/20 09:28:25;;;;;;;;;;;;;;;20.27;55.55;98315.03;4984920;28;20348;-75
2022/11/20 09:30:50;;;;;;;;;;;;;;;20.25;55.72;98301.16;4997909;28;20009;-75
2022/11/20 09:33:15;;;;;;;;;;;;;;;20.23;55.51;98292.56;4985050;28;19933;-76
2022/11/20 09:35:41;;;;;;;;;;;;;;;20.20;55.64;98295.59;5001127;28;19924;-80
2022/11/20 09:38:06;;;;;;;;;;;;;;;20.20;55.44;98295.59;4968006;28;20285;-77
2022/11/20 09:40:31;;;;;;;;;;;;;;;20.22;55.52;98288.28;4988989;28;20004;-76
2022/11/20 09:43:00;;;;;;;;;;;;;;;20.26;55.60;98292.19;4968391;28;20308;-77
2022/11/20 09:45:28;;;;;;;;;;;;;;;20.30;55.44;98282.84;5003768;28;20419;-74
2022/11/20 09:47:59;;;;;;;;;;;;;;;20.33;55.61;98282.47;5002172;28;19960;-76
2022/11/20 09:50:37;;;;;;;;;;;;;;;20.38;55.51;98281.88;5002632;28;20292;-80
2022/11/20 09:53:13;;;;;;;;;;;;;;;20.48;54.98;98274.44;5000323;28;19926;-77
2022/11/20 09:55:39;;;;;;;;;;;;;;;20.64;54.84;98267.22;4990910;28;20289;-76
2022/11/20 09:58:05;;;;;;;;;;;;;;;20.82;54.46;98264.91;4983334;28;19914;-78
2022/11/20 10:00:31;;;;;;;;;;;;;;;21.07;53.66;98270.56;4984592;28;20296;-74
2022/11/20 10:03:01;;;;;;;;;;;;;;;21.24;53.42;98262.28;4983835;28;19921;-81
2022/11/20 10:05:26;;;;;;;;;;;;;;;21.57;52.48;98254.47;5003271;28;19941;-77
2022/11/20 10:07:57;;;;;;;;;;;;;;;21.85;51.76;98256.16;5003381;28;20396;-76
2022/11/20 10:10:25;;;;;;;;;;;;;;;22.00;51.49;98256.81;4997944;28;19921;-76
2022/11/20 10:13:03;;;;;;;;;;;;;;;22.21;50.78;98261.13;4993868;28;20392;-77
2022/11/20 10:15:31;;;;;;;;;;;;;;;22.54;49.85;98260.34;4976564;28;19940;-76
2022/11/20 10:18:02;;;;;;;;;;;;;;;22.48;49.77;98250.50;4993288;28;19918;-74
2022/11/20 10:20:39;;;;;;;;;;;;;;;22.59;49.48;98246.41;4993963;28;19918;-74
2022/11/20 10:23:19;;;;;;;;;;;;;;;23.09;48.32;98233.44;4959998;28;19960;-74
2022/11/20 10:25:45;;;;;;;;;;;;;;;23.19;47.91;98238.31;4975901;28;19917;-75
2022/11/20 10:28:10;;;;;;;;;;;;;;;23.44;47.47;98243.75;4975667;28;19918;-75
2022/11/20 10:30:40;;;;;;;;;;;;;;;23.37;47.45;98234.97;4993140;28;20037;-73
2022/11/20 10:33:25;;;;;;;;;;;;;;;23.33;47.51;98241.75;4976266;28;19922;-79
2022/11/20 10:36:09;;;;;;;;;;;;;;;23.28;47.23;98247.69;4985679;28;20320;-77
2022/11/20 10:38:36;;;;;;;;;;;;;;;23.18;47.62;98243.84;5002206;28;19924;-75
2022/11/20 10:43:46;;;;;;;;;;;;;;;22.95;47.79;98229.97;5002173;28;19929;-76
2022/11/20 10:46:18;;;;;;;;;;;;;;;22.83;48.05;98207.69;5000395;28;19921;-76
2022/11/20 10:48:44;;;;;;;;;;;;;;;22.68;48.09;98223.09;4982766;28;19945;-76
2022/11/20 10:51:19;;;;;;;;;;;;;;;22.53;48.48;98221.47;4984567;28;19968;-78
2022/11/20 10:53:47;;;;;;;;;;;;;;;22.37;48.63;98219.22;4983032;28;19917;-76
2022/11/20 10:56:16;;;;;;;;;;;;;;;22.29;49.02;98216.75;4993424;28;19925;-77
2022/11/20 10:58:51;;;;;;;;;;;;;;;22.17;49.00;98211.22;4976023;28;19918;-76
2022/11/20 11:01:17;;;;;;;;;;;;;;;22.08;49.17;98193.88;4975570;28;20049;-76
2022/11/20 11:03:45;;;;;;;;;;;;;;;21.96;49.64;98204.28;4959315;28;19926;-77
2022/11/20 11:06:32;;;;;;;;;;;;;;;21.88;49.91;98207.13;4959277;28;19925;-76
2022/11/20 11:08:58;;;;;;;;;;;;;;;21.78;49.82;98202.22;4975241;28;19925;-77
2022/11/20 11:11:24;;;;;;;;;;;;;;;21.71;50.14;98206.69;4975238;28;19936;-77
2022/11/20 11:13:50;;;;;;;;;;;;;;;21.62;50.33;98201.56;4975284;28;19921;-77
2022/11/20 11:16:25;;;;;;;;;;;;;;;21.57;50.04;98204.03;4975213;28;20391;-77
2022/11/20 11:18:50;;;;;;;;;;;;;;;21.50;50.43;98196.03;4959734;28;19941;-75
2022/11/20 11:21:25;;;;;;;;;;;;;;;21.46;49.83;98194.78;4966461;28;19921;-78
2022/11/20 11:23:59;;;;;;;;;;;;;;;21.38;50.15;98194.97;4999620;28;19921;-81
2022/11/20 11:26:25;;;;;;;;;;;;;;;21.35;50.45;98191.88;4967513;28;20388;-81
2022/11/20 11:28:57;;;;;;;;;;;;;;;21.33;50.34;98184.94;4982811;28;19921;-81
2022/11/20 11:31:23;;;;;;;;;;;;;;;21.33;50.14;98184.09;4965864;28;19918;-81
2022/11/20 11:33:49;;;;;;;;;;;;;;;21.33;50.04;98173.47;4984228;28;19918;-81
2022/11/20 11:36:18;;;;;;;;;;;;;;;21.33;50.24;98163.69;4982003;28;20088;-81
2022/11/20 11:38:43;;;;;;;;;;;;;;;21.37;50.10;98165.97;4983639;28;19917;-80
2022/11/20 11:41:10;;;;;;;;;;;;;;;21.40;50.05;98157.59;4967748;28;19921;-79
2022/11/20 11:46:20;;;;;;;;;;;;;;;21.40;50.02;98149.63;5001408;28;19941;-82
2022/11/20 11:48:57;;;;;;;;;;;;;;;21.41;49.90;98144.13;4983852;28;20325;-86
2022/11/20 11:51:23;;;;;;;;;;;;;;;21.36;49.80;98143.88;4967571;28;19922;-82
2022/11/20 11:53:48;;;;;;;;;;;;;;;21.38;49.81;98146.34;4985130;28;20285;-85
2022/11/20 11:56:14;;;;;;;;;;;;;;;21.37;49.98;98150.03;4996116;28;19932;-83
2022/11/20 11:58:46;;;;;;;;;;;;;;;21.38;49.68;98157.78;5002119;28;19918;-76
2022/11/20 12:01:18;;;;;;;;;;;;;;;21.37;49.84;98152.69;5001827;28;19922;-80
2022/11/20 12:03:50;;;;;;;;;;;;;;;21.37;49.65;98158.81;4984557;28;19925;-79
2022/11/20 12:06:16;;;;;;;;;;;;;;;21.38;49.74;98146.34;5001504;28;20032;-83
2022/11/20 12:08:56;;;;;;;;;;;;;;;21.42;49.55;98143.06;4979074;28;20493;-80
2022/11/20 12:11:29;;;;;;;;;;;;;;;21.44;49.64;98149.03;4984977;28;19930;-83
2022/11/20 12:14:01;;;;;;;;;;;;;;;21.44;49.53;98138.41;4985131;28;19975;-81
2022/11/20 12:16:27;;;;;;;;;;;;;;;21.43;49.86;98159.84;4983376;28;19924;-80
2022/11/20 12:18:53;;;;;;;;;;;;;;;21.37;49.95;98158.81;4982068;28;19922;-81
2022/11/20 12:21:24;;;;;;;;;;;;;;;21.36;49.90;98151.84;4983271;28;20071;-83
2022/11/20 12:23:59;;;;;;;;;;;;;;;21.35;49.82;98163.50;4999760;28;20311;-86
2022/11/20 12:26:24;;;;;;;;;;;;;;;21.31;49.80;98156.94;4984628;28;20020;-84
2022/11/20 12:28:56;;;;;;;;;;;;;;;21.29;49.87;98159.00;4984436;28;20464;-83
2022/11/20 12:31:29;;;;;;;;;;;;;;;21.27;49.57;98153.88;4966317;28;19952;-84
2022/11/20 12:33:57;;;;;;;;;;;;;;;21.26;50.07;98164.69;4982707;28;20431;-83
2022/11/20 12:36:25;;;;;;;;;;;;;;;21.25;50.08;98160.38;5002030;28;19933;-83
2022/11/20 12:38:54;;;;;;;;;;;;;;;21.22;50.33;98156.31;4981029;28;19920;-84
2022/11/20 12:47:32;;;;;;;;;;;;;;;21.15;50.50;98147.50;5002480;28;19959;-78
2022/11/20 12:50:01;;;;;;;;;;;;;;;21.12;50.97;98153.22;4988899;28;19917;-84
2022/11/20 12:52:41;;;;;;;;;;;;;;;21.10;50.80;98149.94;4991955;28;19922;-86
2022/11/20 12:55:06;;;;;;;;;;;;;;;21.05;51.01;98142.59;4997450;28;19917;-86
2022/11/20 12:57:32;;;;;;;;;;;;;;;21.04;51.17;98150.75;4988368;28;19922;-81
2022/11/20 13:00:00;;;;;;;;;;;;;;;21.00;51.29;98150.31;4989054;28;19917;-82
2022/11/20 13:02:33;;;;;;;;;;;;;;;20.96;51.59;98151.72;4965823;28;19917;-80
2022/11/20 13:05:01;;;;;;;;;;;;;;;20.96;51.69;98149.06;4987206;28;19921;-81
2022/11/20 13:07:27;;;;;;;;;;;;;;;20.93;51.61;98144.97;4985207;28;19917;-83
2022/11/20 13:09:53;;;;;;;;;;;;;;;20.91;51.65;98149.66;4986628;28;20303;-84
2022/11/20 13:12:29;;;;;;;;;;;;;;;20.91;51.92;98144.38;4992300;28;19949;-88
2022/11/20 13:15:00;;;;;;;;;;;;;;;20.92;51.93;98146.00;5001060;28;19917;-92
2022/11/20 13:17:43;;;;;;;;;;;;;;;20.94;52.36;98143.16;4981606;28;20341;-79
2022/11/20 13:20:12;;;;;;;;;;;;;;;20.92;52.43;98139.88;5005390;28;19918;-75
2022/11/20 13:22:47;;;;;;;;;;;;;;;20.91;52.44;98138.25;4982536;28;20005;-78
2022/11/20 13:25:31;;;;;;;;;;;;;;;20.89;52.64;98142.91;4998710;28;20016;-82
2022/11/20 13:27:57;;;;;;;;;;;;;;;20.85;52.61;98142.50;4980158;28;19956;-76
2022/11/20 13:30:23;;;;;;;;;;;;;;;20.81;52.60;98141.28;4984245;28;19936;-80
2022/11/20 13:32:51;;;;;;;;;;;;;;;20.75;52.93;98136.75;4979304;28;19918;-79
2022/11/20 13:35:25;;;;;;;;;;;;;;;20.71;53.36;98149.56;4986704;28;20404;-78
2022/11/20 13:37:58;;;;;;;;;;;;;;;20.68;53.28;98139.34;5000595;28;20377;-79
2022/11/20 13:40:24;;;;;;;;;;;;;;;20.63;53.71;98141.75;4983078;28;20419;-78
2022/11/20 13:43:01;;;;;;;;;;;;;;;20.58;53.74;98142.34;4965094;28;19946;-79
2022/11/20 13:45:28;;;;;;;;;;;;;;;20.55;53.63;98132.13;4981066;28;19918;-76
2022/11/20 13:47:54;;;;;;;;;;;;;;;20.52;53.98;98139.66;4997142;28;20440;-79
2022/11/20 13:50:21;;;;;;;;;;;;;;;20.49;53.96;98127.59;4997890;28;19914;-78
2022/11/20 13:52:53;;;;;;;;;;;;;;;20.45;54.00;98128.19;4983310;28;19914;-78
2022/11/20 13:55:27;;;;;;;;;;;;;;;20.42;54.24;98129.41;4984001;28;19920;-77
2022/11/20 13:57:56;;;;;;;;;;;;;;;20.39;54.29;98130.59;4999739;28;19922;-79
2022/11/20 14:00:22;;;;;;;;;;;;;;;20.37;54.35;98122.03;4983504;28;19965;-79
2022/11/20 14:02:52;;;;;;;;;;;;;;;20.36;54.35;98125.69;4965247;28;19914;-78
2022/11/20 14:05:21;;;;;;;;;;;;;;;20.35;54.55;98120.59;4983774;28;19918;-77
2022/11/20 14:07:47;;;;;;;;;;;;;;;20.32;54.40;98121.81;4981397;28;19922;-79
2022/11/20 14:10:28;;;;;;;;;;;;;;;20.32;54.57;98126.28;4984255;28;20020;-80
2022/11/20 14:12:54;;;;;;;;;;;;;;;20.29;54.50;98124.84;4985288;28;19941;-80
2022/11/20 14:15:29;;;;;;;;;;;;;;;20.26;54.30;98122.59;4984983;28;20293;-79
2022/11/20 14:17:55;;;;;;;;;;;;;;;20.24;54.32;98125.44;5002920;28;19922;-79
2022/11/20 14:20:23;;;;;;;;;;;;;;;20.21;54.42;98122.38;4984332;28;19976;-79
2022/11/20 14:22:49;;;;;;;;;;;;;;;20.19;54.33;98121.72;4984149;28;19913;-79
2022/11/20 14:25:15;;;;;;;;;;;;;;;20.17;54.31;98123.75;4986315;28;20012;-78
2022/11/20 14:27:41;;;;;;;;;;;;;;;20.14;54.18;98126.78;4984598;28;20340;-80
2022/11/20 14:30:13;;;;;;;;;;;;;;;20.12;54.38;98120.88;4967472;28;19922;-78
2022/11/20 14:32:38;;;;;;;;;;;;;;;20.12;54.40;98118.22;5004337;28;19952;-80
2022/11/20 14:35:07;;;;;;;;;;;;;;;20.10;54.42;98117.56;4970252;28;19929;-79
2022/11/20 14:37:33;;;;;;;;;;;;;;;20.08;54.36;98111.66;4995134;28;20425;-81
2022/11/20 14:40:14;;;;;;;;;;;;;;;20.04;54.53;98114.69;4969195;28;19914;-80
2022/11/20 14:42:43;;;;;;;;;;;;;;;20.02;54.65;98122.03;5003543;28;19914;-79
2022/11/20 14:45:11;;;;;;;;;;;;;;;19.99;54.66;98121.59;4986761;28;19914;-79
2022/11/20 14:47:36;;;;;;;;;;;;;;;19.97;54.82;98131.53;4968500;28;19913;-79
2022/11/20 14:50:01;;;;;;;;;;;;;;;19.94;54.76;98132.78;4980929;28;19979;-80
2022/11/20 14:52:27;;;;;;;;;;;;;;;19.92;54.95;98133.97;4980935;28;20012;-78
2022/11/20 14:54:55;;;;;;;;;;;;;;;19.90;54.98;98141.28;5001148;28;19925;-79
2022/11/20 14:57:20;;;;;;;;;;;;;;;19.88;55.10;98138.81;4986859;28;20059;-83
2022/11/20 14:59:46;;;;;;;;;;;;;;;19.81;56.12;98143.25;4982285;28;20008;-80
2022/11/20 15:02:11;;;;;;;;;;;;;;;19.75;56.60;98143.97;4988346;28;20011;-77
2022/11/20 15:04:49;;;;;;;;;;;;;;;19.71;57.07;98149.63;4986413;28;19917;-80
2022/11/20 15:07:28;;;;;;;;;;;;;;;19.68;57.02;98144.72;4986026;28;19917;-85
2022/11/20 15:10:00;;;;;;;;;;;;;;;19.66;56.92;98160.00;4988045;28;19995;-87
2022/11/20 15:12:25;;;;;;;;;;;;;;;19.67;56.76;98163.44;4983985;28;19926;-86
2022/11/20 15:14:51;;;;;;;;;;;;;;;19.69;56.45;98167.56;4992986;28;20315;-82
2022/11/20 15:17:16;;;;;;;;;;;;;;;19.75;56.19;98163.34;4983899;28;19964;-79
2022/11/20 15:19:42;;;;;;;;;;;;;;;19.77;55.87;98174.59;5002286;28;20400;-78
2022/11/20 15:22:09;;;;;;;;;;;;;;;19.79;55.80;98174.41;4966744;28;19917;-77
2022/11/20 15:24:35;;;;;;;;;;;;;;;19.76;55.48;98167.63;4983898;28;20315;-78
2022/11/20 15:27:00;;;;;;;;;;;;;;;19.70;55.54;98166.56;4985239;28;19918;-87
2022/11/20 15:29:26;;;;;;;;;;;;;;;19.73;55.56;98167.19;4983378;28;19918;-76
2022/11/20 15:31:52;;;;;;;;;;;;;;;19.81;57.47;98167.06;5006716;28;19922;-84
2022/11/20 15:34:17;;;;;;;;;;;;;;;20.12;57.17;98164.06;4968737;28;19999;-79
2022/11/20 15:36:43;;;;;;;;;;;;;;;20.49;57.19;98167.38;4966365;28;20388;-80
2022/11/20 15:39:08;;;;;;;;;;;;;;;20.84;57.13;98169.22;4999849;28;19952;-81
2022/11/20 15:41:34;;;;;;;;;;;;;;;21.25;58.55;98184.28;4984321;28;19918;-77
2022/11/20 15:43:59;;;;;;;;;;;;;;;21.58;57.22;98176.44;4998482;28;19925;-78
2022/11/20 15:46:26;;;;;;;;;;;;;;;21.85;58.46;98187.94;5000285;28;19929;-77
2022/11/20 15:48:51;;;;;;;;;;;;;;;22.18;57.16;98194.25;4967552;28;19928;-79
2022/11/20 15:51:28;;;;;;;;;;;;;;;22.33;56.17;98191.41;4982358;28;20001;-82
2022/11/20 15:53:54;;;;;;;;;;;;;;;22.53;53.84;98178.94;4998582;28;19984;-82
2022/11/20 15:56:19;;;;;;;;;;;;;;;22.67;52.35;98184.19;4984341;28;20396;-79
2022/11/20 15:58:44;;;;;;;;;;;;;;;22.72;51.93;98187.88;4983034;28;20447;-80
2022/11/20 16:01:11;;;;;;;;;;;;;;;22.65;51.10;98186.25;5000409;28;19979;-81
2022/11/20 16:03:36;;;;;;;;;;;;;;;22.50;51.21;98182.00;4983940;28;20029;-83
2022/11/20 16:06:01;;;;;;;;;;;;;;;22.30;51.03;98191.84;4982096;28;20404;-81
2022/11/20 16:08:27;;;;;;;;;;;;;;;22.08;51.01;98184.03;4999962;28;19964;-80
2022/11/20 16:10:52;;;;;;;;;;;;;;;21.90;51.18;98187.31;4983132;28;19933;-82
2022/11/20 16:16:04;;;;;;;;;;;;;;;21.43;52.00;98181.91;4997987;28;19928;-81
2022/11/20 16:18:30;;;;;;;;;;;;;;;21.23;52.49;98179.16;4983454;28;19918;-80
2022/11/20 16:20:55;;;;;;;;;;;;;;;21.07;52.85;98167.06;4999535;28;19917;-79
2022/11/20 16:23:20;;;;;;;;;;;;;;;20.93;53.02;98176.00;4984127;28;20456;-81
2022/11/20 16:25:46;;;;;;;;;;;;;;;20.77;53.54;98177.97;4982817;28;19918;-82
2022/11/20 16:28:11;;;;;;;;;;;;;;;20.64;53.96;98182.38;5000023;28;19921;-84
2022/11/20 16:30:36;;;;;;;;;;;;;;;20.52;54.67;98184.72;4990311;28;19925;-87
2022/11/20 16:33:02;;;;;;;;;;;;;;;20.41;55.40;98184.28;4970012;28;19917;-82
2022/11/20 16:35:28;;;;;;;;;;;;;;;20.33;55.10;98180.94;5004254;28;20400;-85
2022/11/20 16:37:54;;;;;;;;;;;;;;;20.24;55.40;98181.09;4972824;28;20387;-84
2022/11/20 16:40:21;;;;;;;;;;;;;;;20.15;55.47;98187.53;5007814;28;19980;-83
2022/11/20 16:42:46;;;;;;;;;;;;;;;20.09;55.77;98190.94;5009866;28;19957;-81
2022/11/20 16:45:11;;;;;;;;;;;;;;;20.06;55.78;98204.56;4985521;28;20116;-83
2022/11/20 16:47:36;;;;;;;;;;;;;;;20.00;55.91;98203.53;4987417;28;19933;-80
2022/11/20 16:50:02;;;;;;;;;;;;;;;19.94;56.07;98193.69;5006887;28;19929;-82
2022/11/20 16:52:29;;;;;;;;;;;;;;;19.88;56.36;98175.91;4984601;28;19921;-86
2022/11/20 16:54:56;;;;;;;;;;;;;;;19.82;56.38;98169.53;4995426;28;20391;-84
2022/11/20 16:57:22;;;;;;;;;;;;;;;19.76;56.77;98166.78;4987893;28;19922;-85
2022/11/20 16:59:47;;;;;;;;;;;;;;;19.71;56.88;98181.41;4984185;28;19929;-88
2022/11/20 17:02:13;;;;;;;;;;;;;;;19.65;57.22;98186.66;4971727;28;19977;-86
2022/11/20 17:04:38;;;;;;;;;;;;;;;19.59;57.26;98188.22;4974025;28;19975;-85
2022/11/20 17:07:03;;;;;;;;;;;;;;;19.55;57.65;98189.63;4989605;28;19953;-83
2022/11/20 17:09:29;;;;;;;;;;;;;;;19.51;57.78;98204.22;4973894;28;19921;-78
2022/11/20 17:11:54;;;;;;;;;;;;;;;19.44;58.01;98204.16;5000988;28;19926;-83
2022/11/20 17:14:19;;;;;;;;;;;;;;;19.42;58.10;98198.25;4971124;28;19918;-80
2022/11/20 17:16:45;;;;;;;;;;;;;;;19.38;58.18;98204.09;5002063;28;19917;-86
2022/11/20 17:19:10;;;;;;;;;;;;;;;19.34;58.45;98212.41;4968742;28;19956;-83
2022/11/20 17:21:36;;;;;;;;;;;;;;;19.32;58.59;98209.13;4984230;28;19925;-86
2022/11/20 17:24:02;;;;;;;;;;;;;;;19.29;58.80;98198.06;4991265;28;20450;-85
2022/11/20 17:26:28;;;;;;;;;;;;;;;19.25;58.84;98196.81;5004832;28;19976;-82
2022/11/20 17:28:53;;;;;;;;;;;;;;;19.22;59.00;98195.34;5014090;28;20372;-85
2022/11/20 17:31:19;;;;;;;;;;;;;;;19.20;59.08;98205.31;5013992;28;19917;-82
2022/11/20 17:33:44;;;;;;;;;;;;;;;19.14;59.30;98200.75;4996383;28;19921;-86
2022/11/20 17:36:10;;;;;;;;;;;;;;;19.10;59.45;98208.25;4997003;28;19983;-85
2022/11/20 17:38:36;;;;;;;;;;;;;;;19.06;59.74;98209.63;5013061;28;19932;-83
2022/11/20 17:41:05;;;;;;;;;;;;;;;19.04;59.69;98194.94;5012252;28;19917;-81
2022/11/20 17:43:31;;;;;;;;;;;;;;;19.00;59.94;98199.78;5014004;28;19924;-86
2022/11/20 17:45:56;;;;;;;;;;;;;;;18.97;59.96;98197.50;4995570;28;19917;-80
2022/11/20 17:48:21;;;;;;;;;;;;;;;18.96;60.11;98194.03;4996066;28;19922;-83
2022/11/20 17:50:47;;;;;;;;;;;;;;;18.93;60.24;98191.75;4995636;28;19920;-85
2022/11/20 17:53:12;;;;;;;;;;;;;;;18.92;60.38;98202.53;5007917;28;19924;-81
2022/11/20 17:58:21;;;;;;;;;;;;;;;18.85;60.66;98225.41;4978628;28;19925;-81
2022/11/20 18:00:47;;;;;;;;;;;;;;;18.81;60.88;98224.91;4993908;28;19918;-82
2022/11/20 18:03:12;;;;;;;;;;;;;;;18.80;60.89;98217.97;4958833;28;19918;-84
2022/11/20 18:05:37;;;;;;;;;;;;;;;18.77;61.01;98202.47;4992012;28;20397;-80
2022/11/20 18:08:03;;;;;;;;;;;;;;;18.75;61.12;98193.91;4985448;28;20384;-80
2022/11/20 18:10:29;;;;;;;;;;;;;;;18.73;61.21;98186.16;4991705;28;19922;-81
2022/11/20 18:12:54;;;;;;;;;;;;;;;18.71;61.43;98190.03;5007670;28;19929;-82
2022/11/20 18:15:19;;;;;;;;;;;;;;;18.69;61.57;98184.06;4995221;28;19917;-82
2022/11/20 18:17:45;;;;;;;;;;;;;;;18.65;61.76;98174.88;4990851;28;19921;-84
2022/11/20 18:20:11;;;;;;;;;;;;;;;18.61;61.76;98172.59;4994861;28;20296;-80
2022/11/20 18:22:37;;;;;;;;;;;;;;;18.57;61.85;98176.59;5011768;28;20005;-82
2022/11/20 18:25:02;;;;;;;;;;;;;;;18.55;61.99;98181.25;5012101;28;20023;-81
2022/11/20 18:27:27;;;;;;;;;;;;;;;18.51;62.12;98171.22;5011762;28;20024;-80
2022/11/20 18:29:53;;;;;;;;;;;;;;;18.47;62.19;98169.94;5011390;28;19952;-80
2022/11/20 18:32:21;;;;;;;;;;;;;;;18.43;62.05;98164.22;4995600;28;19925;-84
2022/11/20 18:34:46;;;;;;;;;;;;;;;18.40;62.20;98152.16;5012195;28;19925;-83
2022/11/20 18:37:14;;;;;;;;;;;;;;;18.38;62.42;98158.66;4996023;28;19918;-82
2022/11/20 18:39:39;;;;;;;;;;;;;;;18.33;62.33;98153.91;5004226;28;19917;-81
2022/11/20 18:44:53;;;;;;;;;;;;;;;18.28;62.28;98145.72;5011873;28;20391;-82
2022/11/20 18:47:21;;;;;;;;;;;;;;;18.25;62.45;98140.78;4995312;28;20355;-82
2022/11/20 18:49:54;;;;;;;;;;;;;;;18.21;62.40;98135.03;5012087;28;20013;-84
2022/11/20 18:52:23;;;;;;;;;;;;;;;18.18;62.51;98129.28;4995721;28;20309;-83
2022/11/20 18:54:48;;;;;;;;;;;;;;;18.15;62.70;98143.66;5002177;28;19939;-82
2022/11/20 18:57:17;;;;;;;;;;;;;;;18.13;62.57;98155.44;4994698;28;19947;-82
2022/11/20 18:59:43;;;;;;;;;;;;;;;18.08;62.69;98158.59;4993833;28;19925;-83
2022/11/20 19:02:12;;;;;;;;;;;;;;;18.06;62.64;98161.44;4984920;28;20459;-84
2022/11/20 19:04:37;;;;;;;;;;;;;;;18.04;62.73;98150.22;4973968;28;19921;-83
2022/11/20 19:07:03;;;;;;;;;;;;;;;18.01;62.75;98155.03;5011742;28;19918;-83
2022/11/20 19:09:28;;;;;;;;;;;;;;;17.99;62.69;98146.47;5012302;28;20004;-82
2022/11/20 19:11:54;;;;;;;;;;;;;;;17.97;62.67;98156.41;5010541;28;19922;-83
2022/11/20 19:14:19;;;;;;;;;;;;;;;17.92;62.92;98159.56;5011257;28;19949;-82
2022/11/20 19:16:45;;;;;;;;;;;;;;;17.91;62.79;98160.56;5010472;28;20421;-83
2022/11/20 19:19:10;;;;;;;;;;;;;;;17.91;62.94;98155.28;4994200;28;19917;-82
2022/11/20 19:21:37;;;;;;;;;;;;;;;17.90;62.81;98148.38;4997359;28;20206;-81
2022/11/20 19:24:03;;;;;;;;;;;;;;;17.91;62.85;98150.00;5014336;28;20004;-82
2022/11/20 19:26:28;;;;;;;;;;;;;;;17.89;62.74;98144.09;5014889;28;20027;-82
2022/11/20 19:28:57;;;;;;;;;;;;;;;17.89;62.89;98154.66;5029161;28;19918;-84
2022/11/20 19:31:25;;;;;;;;;;;;;;;17.87;62.94;98138.94;4993503;28;19984;-82
2022/11/20 19:33:54;;;;;;;;;;;;;;;17.86;62.94;98137.31;4975540;28;19932;-84
2022/11/20 19:36:21;;;;;;;;;;;;;;;17.84;62.90;98146.41;4959247;28;19918;-83
2022/11/20 19:38:47;;;;;;;;;;;;;;;17.82;63.07;98161.59;4974148;28;20452;-83
2022/11/20 19:41:13;;;;;;;;;;;;;;;17.81;63.07;98171.34;4974869;28;20012;-81
2022/11/20 19:43:38;;;;;;;;;;;;;;;17.80;63.05;98153.84;4974441;28;19922;-83
2022/11/20 19:46:04;;;;;;;;;;;;;;;17.80;63.10;98148.56;4992890;28;19926;-83
2022/11/20 19:48:32;;;;;;;;;;;;;;;17.80;62.99;98148.56;4986000;28;19929;-82
2022/11/20 19:50:58;;;;;;;;;;;;;;;17.80;62.97;98155.69;5005096;28;19917;-83
2022/11/20 19:53:23;;;;;;;;;;;;;;;17.78;62.98;98144.50;4986917;28;19999;-82
2022/11/20 19:55:57;;;;;;;;;;;;;;;17.77;63.04;98143.66;4963855;28;19917;-84
2022/11/20 19:58:22;;;;;;;;;;;;;;;17.78;63.15;98162.97;4983081;28;19960;-83
2022/11/20 20:00:47;;;;;;;;;;;;;;;17.76;63.08;98168.41;4988236;28;19956;-83
2022/11/20 20:03:13;;;;;;;;;;;;;;;17.75;63.17;98166.75;4986343;28;19918;-83
2022/11/20 20:05:40;;;;;;;;;;;;;;;17.75;63.22;98171.25;4997556;28;19928;-84
2022/11/20 20:08:06;;;;;;;;;;;;;;;17.77;63.09;98171.88;5000476;28;20385;-82
2022/11/20 20:10:31;;;;;;;;;;;;;;;17.76;63.37;98178.97;4961897;28;19929;-81
2022/11/20 20:12:57;;;;;;;;;;;;;;;17.76;63.11;98173.69;4961380;28;19928;-82
2022/11/20 20:15:22;;;;;;;;;;;;;;;17.77;63.05;98166.59;4977776;28;20493;-81
2022/11/20 20:17:50;;;;;;;;;;;;;;;17.77;63.27;98164.75;4977549;28;19928;-81
2022/11/20 20:20:15;;;;;;;;;;;;;;;17.79;63.21;98167.22;4961597;28;20307;-81
2022/11/20 20:22:40;;;;;;;;;;;;;;;17.79;63.19;98154.03;4978103;28;19917;-82